Latest Coastal Weather Observations for Point Perpendicular

IDN60701

Issued at 4:42 pm EDT Saturday 5 December 2020 (issued every 10 minutes, with the page automatically refreshed every 10 minutes)

About coastal observations | Map of coastal stations | Coastal observations for NSW | Marine services | Other Formats
Station Details ID: 068151 Name: POINT PERPENDICULAR AWS Lat: -35.09 Lon: 150.80 Height: 85.0 m
Data from the previous 72 hours. | See also: Recent months at Point Perpendicular
Date/Time
EDT
Wind Sea
Height
m
Swell Vis
km
Cloud Weather Temp
°C
Press
MSL
hPa
Rain since
9am
mm
Dir  Spd
kts
Gust
kts
Height
m
Period
s
Dir
05/04:34pm NNE 20 31 - - - - - - - 20.6 1000.9 0.0
05/04:30pm NNE 19 28 - - - - - - - 20.7 1000.9 0.0
05/04:00pm NNE 21 31 - - - - - - - 20.9 1001.8 0.0
05/03:33pm NNE 19 31 - - - - - - - 20.7 1002.8 0.0
05/03:30pm NNE 19 27 - - - - - - - 20.6 1002.8 0.0
05/03:00pm NNE 21 29 - - - - - - - 20.3 1003.8 0.0
05/02:30pm NNE 19 26 - - - - - - - 20.1 1004.7 0.0
05/02:00pm NNE 18 25 - - - - - - - 20.2 1005.4 0.0
05/01:30pm NNE 18 26 - - - - - - - 20.3 1006.2 0.0
05/01:00pm NNE 17 24 - - - - - - - 20.4 1007.1 0.0
05/12:30pm NNE 17 24 - - - - - - - 21.4 1008.2 0.0
05/12:00pm NNE 17 25 - - - - - - - 21.3 1008.6 0.0
05/11:30am NNE 14 19 - - - - - - - 21.5 1009.7 0.0
05/11:00am NNE 13 18 - - - - - - - 21.7 1010.5 0.0
05/10:30am NNE 10 15 - - - - - - - 20.5 1011.2 0.0
05/10:00am NNE 10 15 - - - - - - - 20.6 1011.6 0.0
05/09:30am NNE 11 16 - - - - - - - 20.5 1012.1 0.0
05/09:00am NE 7 12 - - - - - - - 20.5 1012.3 0.0
05/08:30am NE 6 9 - - - - - - - 19.9 1012.7 0.0
05/08:00am NE 5 9 - - - - - - - 19.5 1012.9 0.0
05/07:30am NE 5 7 - - - - - - - 18.6 1012.9 0.0
05/07:00am NNE 2 3 - - - - - - - 17.9 1013.0 0.0
05/06:30am N 3 4 - - - - - - - 16.4 1013.2 0.0
05/06:00am NE 1 2 - - - - - - - 15.9 1013.3 0.0
05/05:30am NE 1 2 - - - - - - - 16.9 1013.5 0.0
05/05:00am ESE 3 4 - - - - - - - 17.1 1013.4 0.0
05/04:30am ESE 3 6 - - - - - - - 17.2 1013.4 0.0
05/04:00am SE 3 5 - - - - - - - 17.2 1013.7 0.0
05/03:30am SE 3 5 - - - - - - - 17.1 1013.9 0.0
05/03:00am SE 3 4 - - - - - - - 17.0 1014.2 0.0
05/02:30am ESE 2 4 - - - - - - - 17.3 1014.8 0.0
05/02:00am SE 2 4 - - - - - - - 17.5 1015.1 0.0
05/01:30am SE 3 4 - - - - - - - 17.4 1015.2 0.0
05/01:00am SSE 3 5 - - - - - - - 17.6 1015.5 0.0
05/12:30am SSE 4 6 - - - - - - - 17.6 1015.5 0.0
05/12:00am S 5 9 - - - - - - - 17.7 1015.5 0.0
 
Date/Time
EDT
Wind Sea
Height
m
Swell Vis
km
Cloud Weather Temp
°C
Press
MSL
hPa
Rain since
9am
mm
Dir  Spd
kts
Gust
kts
Height
m
Period
s
Dir
04/11:30pm S 6 10 - - - - - - - 17.7 1015.6 0.0
04/11:00pm S 9 13 - - - - - - - 17.8 1015.7 0.0
04/10:30pm S 10 14 - - - - - - - 18.0 1015.7 0.0
04/10:00pm S 10 15 - - - - - - - 18.0 1015.4 0.0
04/09:30pm S 10 15 - - - - - - - 18.0 1015.3 0.0
04/09:00pm S 10 15 - - - - - - - 18.2 1014.8 0.0
04/08:30pm S 12 18 - - - - - - - 18.3 1014.3 0.0
04/08:00pm S 13 19 - - - - - - - 18.7 1014.0 0.0
04/07:30pm S 14 23 - - - - - - - 19.0 1013.4 0.0
04/07:00pm S 14 20 - - - - - - - 19.3 1012.9 0.0
04/06:30pm SSW 11 24 - - - - - - - 20.0 1012.1 0.0
04/06:00pm E 8 11 - - - - - - - 21.9 1011.4 0.0
04/05:30pm NE 12 17 - - - - - - - 25.0 1009.8 0.0
04/05:00pm NNE 13 18 - - - - - - - 25.8 1009.3 0.0
04/04:30pm NNE 14 18 - - - - - - - 25.7 1009.4 0.0
04/04:00pm NNE 12 19 - - - - - - - 25.6 1009.7 0.0
04/03:30pm NNE 13 17 - - - - - - - 25.7 1010.0 0.0
04/03:00pm NNE 11 15 - - - - - - - 25.4 1010.4 0.0
04/02:30pm NE 10 13 - - - - - - - 22.4 1011.0 0.0
04/02:00pm NE 9 13 - - - - - - - 23.5 1011.2 0.0
04/01:30pm ENE 6 11 - - - - - - - 22.8 1011.2 0.0
04/01:00pm NE 9 12 - - - - - - - 22.7 1011.6 0.0
04/12:30pm ENE 7 9 - - - - - - - 22.5 1012.2 0.0
04/12:00pm ENE 7 10 - - - - - - - 22.4 1012.8 0.0
04/11:30am E 4 7 - - - - - - - 21.6 1013.4 0.0
04/11:00am NW 4 9 - - - - - - - 21.6 1013.8 0.0
04/10:30am NW 5 9 - - - - - - - 22.9 1013.9 0.0
04/10:00am W 2 6 - - - - - - - 20.4 1014.3 0.0
04/09:30am W 3 7 - - - - - - - 19.8 1014.6 0.0
04/09:00am WSW 4 9 - - - - - - - 19.5 1015.0 0.0
04/08:30am WSW 5 6 - - - - - - - 19.5 1015.0 0.0
04/08:00am WSW 3 7 - - - - - - - 18.9 1014.9 0.0
04/07:30am W 2 6 - - - - - - - 18.3 1014.8 0.0
04/07:00am WNW 2 4 - - - - - - - 18.0 1014.6 0.0
04/06:30am WSW 3 6 - - - - - - - 17.7 1014.5 0.0
04/06:00am WSW 3 5 - - - - - - - 17.6 1014.4 0.0
04/05:30am WSW 4 6 - - - - - - - 17.6 1014.4 0.0
04/05:00am SW 6 9 - - - - - - - 17.9 1014.4 0.0
04/04:30am SSW 6 8 - - - - - - - 18.1 1014.3 0.0
04/04:00am S 5 7 - - - - - - - 18.2 1014.5 0.0
04/03:30am SSW 5 7 - - - - - - - 18.2 1014.6 0.0
04/03:00am SSW 5 7 - - - - - - - 18.5 1014.6 0.0
04/02:30am WNW 2 4 - - - - - - - 18.2 1014.8 0.0
04/02:00am N 6 7 - - - - - - - 18.0 1015.1 0.0
04/01:30am N 6 8 - - - - - - - 18.2 1015.3 0.0
04/01:00am N 6 7 - - - - - - - 18.1 1015.4 0.0
04/12:30am N 7 8 - - - - - - - 18.2 1015.6 0.0
04/12:00am N 7 10 - - - - - - - 18.6 1016.0 0.0
 
Date/Time
EDT
Wind Sea
Height
m
Swell Vis
km
Cloud Weather Temp
°C
Press
MSL
hPa
Rain since
9am
mm
Dir  Spd
kts
Gust
kts
Height
m
Period
s
Dir
03/11:30pm N 11 16 - - - - - - - 19.0 1016.0 0.0
03/11:00pm N 13 20 - - - - - - - 19.1 1016.1 0.0
03/10:30pm N 15 21 - - - - - - - 19.3 1016.2 0.0
03/10:00pm N 15 23 - - - - - - - 19.2 1016.4 0.0
03/09:30pm N 17 24 - - - - - - - 19.2 1016.5 0.0
03/09:00pm NNE 17 25 - - - - - - - 19.1 1016.5 0.0
03/08:40pm N 18 29 - - - - - - - 19.1 1016.2 0.0
03/08:30pm N 16 22 - - - - - - - 19.1 1016.0 0.0
03/08:00pm N 15 25 - - - - - - - 19.1 1016.2 0.0
03/07:30pm NNE 16 24 - - - - - - - 19.3 1016.2 0.0
03/07:10pm N 16 26 - - - - - - - 19.5 1016.1 0.0
03/07:00pm N 17 25 - - - - - - - 19.5 1016.2 0.0
03/06:30pm N 19 25 - - - - - - - 20.0 1016.4 0.0
03/06:00pm N 16 25 - - - - - - - 20.0 1016.5 0.0
03/05:30pm NNE 16 23 - - - - - - - 20.3 1016.8 0.0
03/05:00pm NNE 14 20 - - - - - - - 20.3 1017.2 0.0
03/04:30pm NNE 15 23 - - - - - - - 20.3 1017.7 0.0
03/04:23pm NNE 15 25 - - - - - - - 20.4 1017.9 0.0
03/04:00pm NNE 17 22 - - - - - - - 20.7 1017.8 0.0
03/03:30pm NNE 19 26 - - - - - - - 21.0 1017.9 0.0
03/03:00pm NNE 18 25 - - - - - - - 22.5 1018.7 0.0
03/02:30pm NNE 13 20 - - - - - - - 20.2 1019.4 0.0
03/02:00pm NNE 13 20 - - - - - - - 20.0 1019.6 0.0
03/01:30pm NNE 13 18 - - - - - - - 20.4 1019.9 0.0
03/01:00pm NNE 10 14 - - - - - - - 19.3 1021.0 0.0
03/12:30pm NNE 10 13 - - - - - - - 19.4 1021.2 0.0
03/12:00pm NNE 11 15 - - - - - - - 19.0 1021.6 0.0
03/11:30am NNE 10 15 - - - - - - - 19.6 1022.2 0.0
03/11:00am N 11 16 - - - - - - - 19.9 1022.2 0.0
03/10:30am N 11 17 - - - - - - - 19.7 1022.3 0.0
03/10:00am N 9 12 - - - - - - - 18.9 1022.6 0.0
03/09:30am N 8 12 - - - - - - - 18.5 1022.8 0.0
03/09:00am NNE 6 9 - - - - - - - 18.0 1022.8 0.0
03/08:30am NE 1 3 - - - - - - - 17.2 1023.0 0.0
03/08:00am NE 2 4 - - - - - - - 16.8 1023.3 0.0
03/07:30am NNE 3 4 - - - - - - - 17.2 1023.3 0.0
03/07:00am CALM 0 0 - - - - - - - 16.9 1023.0 0.0
03/06:30am N 2 3 - - - - - - - 16.6 1023.2 0.0
03/06:00am NE 3 5 - - - - - - - 16.9 1022.9 0.0
03/05:30am NE 4 6 - - - - - - - 17.2 1022.6 0.0
03/05:00am ENE 3 4 - - - - - - - 16.7 1022.7 0.0
03/04:30am ENE 5 7 - - - - - - - 16.7 1022.8 0.0
03/04:00am E 5 6 - - - - - - - 17.0 1022.8 0.0
03/03:30am ESE 5 10 - - - - - - - 16.9 1023.1 0.0
03/03:00am E 5 8 - - - - - - - 16.8 1023.3 0.0
03/02:30am E 4 7 - - - - - - - 16.7 1023.8 0.0
03/02:00am ESE 6 9 - - - - - - - 16.8 1024.1 0.0
03/01:30am ESE 6 8 - - - - - - - 16.7 1024.6 0.0
03/01:00am SE 5 10 - - - - - - - 16.9 1025.3 0.0
03/12:30am SE 6 11 - - - - - - - 16.8 1025.6 0.0
03/12:00am ESE 6 9 - - - - - - - 16.9 1026.0 0.0
 
Date/Time
EDT
Wind Sea
Height
m
Swell Vis
km
Cloud Weather Temp
°C
Press
MSL
hPa
Rain since
9am
mm
Dir  Spd
kts
Gust
kts
Height
m
Period
s
Dir
02/11:30pm ESE 6 10 - - - - - - - 16.7 1026.0 0.0
02/11:00pm ESE 7 12 - - - - - - - 16.7 1026.2 0.0
02/10:30pm SE 6 10 - - - - - - - 17.0 1026.0 0.0
02/10:00pm ESE 7 12 - - - - - - - 16.9 1025.7 0.0
02/09:30pm SSE 8 11 - - - - - - - 16.6 1025.2 0.0
02/09:00pm SE 7 11 - - - - - - - 16.7 1024.7 0.0
02/08:30pm SE 7 14 - - - - - - - 16.7 1024.0 0.0
02/08:00pm SE 6 11 - - - - - - - 16.7 1023.9 0.0
02/07:30pm SE 8 12 - - - - - - - 17.0 1023.5 0.0
02/07:00pm SE 7 14 - - - - - - - 17.3 1023.2 0.0
02/06:30pm SE 8 14 - - - - - - - 17.4 1022.5 0.0
02/06:00pm SE 6 10 - - - - - - - 17.5 1022.1 0.0
02/05:30pm ESE 8 12 - - - - - - - 17.6 1022.0 0.0
02/05:00pm SE 7 12 - - - - - - - 17.6 1021.9 0.0

Other formats

Comma delimited format used in spreadsheet applications
http://www.bom.gov.au/fwo/IDN60701/IDN60701.95940.axf

JavaScript Object Notation format (JSON) in row-major order
http://www.bom.gov.au/fwo/IDN60701/IDN60701.95940.json

Data quality

Most of these data are generated automatically and are frequently updated. Quality checks on data are not normally performed. It is possible for incorrect values to appear. Refer to information at About Latest Weather Observations and please check the disclaimer before using these data.